sensor_id;sensor_type;location;lat;lon;timestamp;P1;P2;P0
77481;PMS5003;66582;43.004;-75.010;2023-02-26T00:01:24;6;5;
77481;PMS5003;66582;43.004;-75.010;2023-02-26T00:03:48;8;8;
77481;PMS5003;66582;43.004;-75.010;2023-02-26T00:06:13;9;8;
77481;PMS5003;66582;43.004;-75.010;2023-02-26T00:08:39;6;6;
77481;PMS5003;66582;43.004;-75.010;2023-02-26T00:11:05;13;13;
77481;PMS5003;66582;43.004;-75.010;2023-02-26T00:13:29;6;6;
77481;PMS5003;66582;43.004;-75.010;2023-02-26T00:15:55;6;6;
77481;PMS5003;66582;43.004;-75.010;2023-02-26T00:18:21;10;10;
77481;PMS5003;66582;43.004;-75.010;2023-02-26T00:20:45;6;6;
77481;PMS5003;66582;43.004;-75.010;2023-02-26T00:23:10;13;12;
77481;PMS5003;66582;43.004;-75.010;2023-02-26T00:25:35;9;9;
77481;PMS5003;66582;43.004;-75.010;2023-02-26T00:28:02;10;9;
77481;PMS5003;66582;43.004;-75.010;2023-02-26T00:30:26;9;9;
77481;PMS5003;66582;43.004;-75.010;2023-02-26T00:32:52;9;8;
77481;PMS5003;66582;43.004;-75.010;2023-02-26T00:35:17;8;8;
77481;PMS5003;66582;43.004;-75.010;2023-02-26T00:37:48;9;9;
77481;PMS5003;66582;43.004;-75.010;2023-02-26T00:40:11;8;6;
77481;PMS5003;66582;43.004;-75.010;2023-02-26T00:42:33;8;6;
77481;PMS5003;66582;43.004;-75.010;2023-02-26T00:44:58;9;5;
77481;PMS5003;66582;43.004;-75.010;2023-02-26T00:47:24;6;6;
77481;PMS5003;66582;43.004;-75.010;2023-02-26T00:49:50;9;8;
77481;PMS5003;66582;43.004;-75.010;2023-02-26T00:52:14;6;6;
77481;PMS5003;66582;43.004;-75.010;2023-02-26T00:54:38;6;6;
77481;PMS5003;66582;43.004;-75.010;2023-02-26T00:57:04;6;6;
77481;PMS5003;66582;43.004;-75.010;2023-02-26T00:59:29;9;8;
77481;PMS5003;66582;43.004;-75.010;2023-02-26T01:01:54;5;5;
77481;PMS5003;66582;43.004;-75.010;2023-02-26T01:04:21;12;10;
77481;PMS5003;66582;43.004;-75.010;2023-02-26T01:06:46;6;6;
77481;PMS5003;66582;43.004;-75.010;2023-02-26T01:09:13;8;8;
77481;PMS5003;66582;43.004;-75.010;2023-02-26T01:11:36;9;8;
77481;PMS5003;66582;43.004;-75.010;2023-02-26T01:14:01;9;8;
77481;PMS5003;66582;43.004;-75.010;2023-02-26T01:16:27;6;6;
77481;PMS5003;66582;43.004;-75.010;2023-02-26T01:18:53;6;6;
77481;PMS5003;66582;43.004;-75.010;2023-02-26T01:21:18;9;9;
77481;PMS5003;66582;43.004;-75.010;2023-02-26T01:23:42;10;6;
77481;PMS5003;66582;43.004;-75.010;2023-02-26T01:26:09;10;10;
77481;PMS5003;66582;43.004;-75.010;2023-02-26T01:28:32;12;9;
77481;PMS5003;66582;43.004;-75.010;2023-02-26T01:30:58;8;6;
77481;PMS5003;66582;43.004;-75.010;2023-02-26T01:33:24;8;8;
77481;PMS5003;66582;43.004;-75.010;2023-02-26T01:35:49;10;10;
77481;PMS5003;66582;43.004;-75.010;2023-02-26T01:38:16;9;8;
77481;PMS5003;66582;43.004;-75.010;2023-02-26T01:43:05;8;6;
77481;PMS5003;66582;43.004;-75.010;2023-02-26T01:45:30;5;5;
77481;PMS5003;66582;43.004;-75.010;2023-02-26T01:47:56;10;9;
77481;PMS5003;66582;43.004;-75.010;2023-02-26T01:50:21;6;6;
77481;PMS5003;66582;43.004;-75.010;2023-02-26T01:55:10;9;9;
77481;PMS5003;66582;43.004;-75.010;2023-02-26T01:57:35;9;9;
77481;PMS5003;66582;43.004;-75.010;2023-02-26T02:00:00;8;8;
77481;PMS5003;66582;43.004;-75.010;2023-02-26T02:02:25;8;8;
77481;PMS5003;66582;43.004;-75.010;2023-02-26T02:04:50;9;8;
77481;PMS5003;66582;43.004;-75.010;2023-02-26T02:07:16;8;8;
77481;PMS5003;66582;43.004;-75.010;2023-02-26T02:09:42;9;8;
77481;PMS5003;66582;43.004;-75.010;2023-02-26T02:12:09;6;6;
77481;PMS5003;66582;43.004;-75.010;2023-02-26T02:14:35;9;6;
77481;PMS5003;66582;43.004;-75.010;2023-02-26T02:16:58;9;8;
77481;PMS5003;66582;43.004;-75.010;2023-02-26T02:19:30;8;8;
77481;PMS5003;66582;43.004;-75.010;2023-02-26T02:21:52;8;8;
77481;PMS5003;66582;43.004;-75.010;2023-02-26T02:24:13;6;6;
77481;PMS5003;66582;43.004;-75.010;2023-02-26T02:26:41;8;6;
77481;PMS5003;66582;43.004;-75.010;2023-02-26T02:31:30;5;5;
77481;PMS5003;66582;43.004;-75.010;2023-02-26T02:33:55;9;8;
77481;PMS5003;66582;43.004;-75.010;2023-02-26T02:36:21;8;8;
77481;PMS5003;66582;43.004;-75.010;2023-02-26T02:38:45;9;9;
77481;PMS5003;66582;43.004;-75.010;2023-02-26T02:41:12;14;12;
77481;PMS5003;66582;43.004;-75.010;2023-02-26T02:43:35;10;9;
77481;PMS5003;66582;43.004;-75.010;2023-02-26T02:46:02;6;6;
77481;PMS5003;66582;43.004;-75.010;2023-02-26T02:48:26;6;6;
77481;PMS5003;66582;43.004;-75.010;2023-02-26T02:50:53;11;8;
77481;PMS5003;66582;43.004;-75.010;2023-02-26T02:53:17;9;9;
77481;PMS5003;66582;43.004;-75.010;2023-02-26T02:55:42;9;9;
77481;PMS5003;66582;43.004;-75.010;2023-02-26T02:58:07;9;9;
77481;PMS5003;66582;43.004;-75.010;2023-02-26T03:00:32;5;5;
77481;PMS5003;66582;43.004;-75.010;2023-02-26T03:02:58;9;9;
77481;PMS5003;66582;43.004;-75.010;2023-02-26T03:05:23;12;12;
77481;PMS5003;66582;43.004;-75.010;2023-02-26T03:07:49;8;8;
77481;PMS5003;66582;43.004;-75.010;2023-02-26T03:10:13;13;11;
77481;PMS5003;66582;43.004;-75.010;2023-02-26T03:12:38;13;13;
77481;PMS5003;66582;43.004;-75.010;2023-02-26T03:15:03;12;11;
77481;PMS5003;66582;43.004;-75.010;2023-02-26T03:17:30;8;8;
77481;PMS5003;66582;43.004;-75.010;2023-02-26T03:19:59;9;9;
77481;PMS5003;66582;43.004;-75.010;2023-02-26T03:22:22;12;9;
77481;PMS5003;66582;43.004;-75.010;2023-02-26T03:24:46;15;15;
77481;PMS5003;66582;43.004;-75.010;2023-02-26T03:27:12;13;13;
77481;PMS5003;66582;43.004;-75.010;2023-02-26T03:29:37;12;12;
77481;PMS5003;66582;43.004;-75.010;2023-02-26T03:32:01;15;12;
77481;PMS5003;66582;43.004;-75.010;2023-02-26T03:34:26;15;13;
77481;PMS5003;66582;43.004;-75.010;2023-02-26T03:36:52;12;12;
77481;PMS5003;66582;43.004;-75.010;2023-02-26T03:39:17;16;14;
77481;PMS5003;66582;43.004;-75.010;2023-02-26T03:41:42;12;12;
77481;PMS5003;66582;43.004;-75.010;2023-02-26T03:44:07;12;10;
77481;PMS5003;66582;43.004;-75.010;2023-02-26T03:46:33;12;12;
77481;PMS5003;66582;43.004;-75.010;2023-02-26T03:48:57;9;8;
77481;PMS5003;66582;43.004;-75.010;2023-02-26T03:51:22;13;12;
77481;PMS5003;66582;43.004;-75.010;2023-02-26T03:53:49;20;17;
77481;PMS5003;66582;43.004;-75.010;2023-02-26T03:56:15;11;11;
77481;PMS5003;66582;43.004;-75.010;2023-02-26T03:58:39;12;11;
77481;PMS5003;66582;43.004;-75.010;2023-02-26T04:01:06;13;10;
77481;PMS5003;66582;43.004;-75.010;2023-02-26T04:03:32;16;15;
77481;PMS5003;66582;43.004;-75.010;2023-02-26T04:05:55;12;12;
77481;PMS5003;66582;43.004;-75.010;2023-02-26T04:08:21;13;13;
77481;PMS5003;66582;43.004;-75.010;2023-02-26T04:10:54;19;18;
77481;PMS5003;66582;43.004;-75.010;2023-02-26T04:13:12;12;12;
77481;PMS5003;66582;43.004;-75.010;2023-02-26T04:15:38;19;15;
77481;PMS5003;66582;43.004;-75.010;2023-02-26T04:18:04;15;15;
77481;PMS5003;66582;43.004;-75.010;2023-02-26T04:20:29;17;16;
77481;PMS5003;66582;43.004;-75.010;2023-02-26T04:22:55;16;16;
77481;PMS5003;66582;43.004;-75.010;2023-02-26T04:25:20;13;13;
77481;PMS5003;66582;43.004;-75.010;2023-02-26T04:27:46;19;16;
77481;PMS5003;66582;43.004;-75.010;2023-02-26T04:30:11;23;21;
77481;PMS5003;66582;43.004;-75.010;2023-02-26T04:32:37;18;16;
77481;PMS5003;66582;43.004;-75.010;2023-02-26T04:35:02;20;17;
77481;PMS5003;66582;43.004;-75.010;2023-02-26T04:37:27;17;14;
77481;PMS5003;66582;43.004;-75.010;2023-02-26T04:39:53;14;13;
77481;PMS5003;66582;43.004;-75.010;2023-02-26T04:42:19;20;17;
77481;PMS5003;66582;43.004;-75.010;2023-02-26T04:44:44;20;17;
77481;PMS5003;66582;43.004;-75.010;2023-02-26T04:47:09;17;16;
77481;PMS5003;66582;43.004;-75.010;2023-02-26T04:49:35;22;20;
77481;PMS5003;66582;43.004;-75.010;2023-02-26T04:52:01;17;15;
77481;PMS5003;66582;43.004;-75.010;2023-02-26T04:54:26;15;12;
77481;PMS5003;66582;43.004;-75.010;2023-02-26T04:56:51;15;12;
77481;PMS5003;66582;43.004;-75.010;2023-02-26T04:59:17;14;14;
77481;PMS5003;66582;43.004;-75.010;2023-02-26T05:01:42;18;15;
77481;PMS5003;66582;43.004;-75.010;2023-02-26T05:04:08;36;30;
77481;PMS5003;66582;43.004;-75.010;2023-02-26T05:06:33;29;28;
77481;PMS5003;66582;43.004;-75.010;2023-02-26T05:08:58;34;30;
77481;PMS5003;66582;43.004;-75.010;2023-02-26T05:11:24;24;24;
77481;PMS5003;66582;43.004;-75.010;2023-02-26T05:13:50;24;18;
77481;PMS5003;66582;43.004;-75.010;2023-02-26T05:16:15;18;16;
77481;PMS5003;66582;43.004;-75.010;2023-02-26T05:18:40;19;18;
77481;PMS5003;66582;43.004;-75.010;2023-02-26T05:21:06;20;17;
77481;PMS5003;66582;43.004;-75.010;2023-02-26T05:23:31;15;14;
77481;PMS5003;66582;43.004;-75.010;2023-02-26T05:25:57;18;16;
77481;PMS5003;66582;43.004;-75.010;2023-02-26T05:28:23;18;16;
77481;PMS5003;66582;43.004;-75.010;2023-02-26T05:30:48;18;15;
77481;PMS5003;66582;43.004;-75.010;2023-02-26T05:33:14;16;16;
77481;PMS5003;66582;43.004;-75.010;2023-02-26T05:35:39;17;14;
77481;PMS5003;66582;43.004;-75.010;2023-02-26T05:38:04;11;11;
77481;PMS5003;66582;43.004;-75.010;2023-02-26T05:40:30;16;16;
77481;PMS5003;66582;43.004;-75.010;2023-02-26T05:42:56;21;18;
77481;PMS5003;66582;43.004;-75.010;2023-02-26T05:45:21;18;15;
77481;PMS5003;66582;43.004;-75.010;2023-02-26T05:47:46;19;19;
77481;PMS5003;66582;43.004;-75.010;2023-02-26T05:50:11;18;17;
77481;PMS5003;66582;43.004;-75.010;2023-02-26T05:52:37;25;19;
77481;PMS5003;66582;43.004;-75.010;2023-02-26T05:55:02;24;20;
77481;PMS5003;66582;43.004;-75.010;2023-02-26T05:57:27;24;21;
77481;PMS5003;66582;43.004;-75.010;2023-02-26T05:59:53;24;20;
77481;PMS5003;66582;43.004;-75.010;2023-02-26T06:02:18;24;21;
77481;PMS5003;66582;43.004;-75.010;2023-02-26T06:04:43;19;17;
77481;PMS5003;66582;43.004;-75.010;2023-02-26T06:07:08;18;17;
77481;PMS5003;66582;43.004;-75.010;2023-02-26T06:09:34;22;21;
77481;PMS5003;66582;43.004;-75.010;2023-02-26T06:12:00;26;24;
77481;PMS5003;66582;43.004;-75.010;2023-02-26T06:14:26;29;23;
77481;PMS5003;66582;43.004;-75.010;2023-02-26T06:16:51;21;18;
77481;PMS5003;66582;43.004;-75.010;2023-02-26T06:19:17;26;23;
77481;PMS5003;66582;43.004;-75.010;2023-02-26T06:21:43;26;24;
77481;PMS5003;66582;43.004;-75.010;2023-02-26T06:24:09;27;24;
77481;PMS5003;66582;43.004;-75.010;2023-02-26T06:26:34;18;17;
77481;PMS5003;66582;43.004;-75.010;2023-02-26T06:29:00;27;20;
77481;PMS5003;66582;43.004;-75.010;2023-02-26T06:31:26;22;19;
77481;PMS5003;66582;43.004;-75.010;2023-02-26T06:33:51;20;18;
77481;PMS5003;66582;43.004;-75.010;2023-02-26T06:36:17;18;17;
77481;PMS5003;66582;43.004;-75.010;2023-02-26T06:38:42;34;28;
77481;PMS5003;66582;43.004;-75.010;2023-02-26T06:41:07;31;30;
77481;PMS5003;66582;43.004;-75.010;2023-02-26T06:43:33;41;35;
77481;PMS5003;66582;43.004;-75.010;2023-02-26T06:45:58;34;31;
77481;PMS5003;66582;43.004;-75.010;2023-02-26T06:48:23;31;28;
77481;PMS5003;66582;43.004;-75.010;2023-02-26T06:50:49;29;28;
77481;PMS5003;66582;43.004;-75.010;2023-02-26T06:53:15;28;23;
77481;PMS5003;66582;43.004;-75.010;2023-02-26T06:55:41;19;18;
77481;PMS5003;66582;43.004;-75.010;2023-02-26T06:58:05;22;22;
77481;PMS5003;66582;43.004;-75.010;2023-02-26T07:00:31;25;21;
77481;PMS5003;66582;43.004;-75.010;2023-02-26T07:02:56;18;16;
77481;PMS5003;66582;43.004;-75.010;2023-02-26T07:05:21;21;19;
77481;PMS5003;66582;43.004;-75.010;2023-02-26T07:07:46;16;16;
77481;PMS5003;66582;43.004;-75.010;2023-02-26T07:10:12;18;18;
77481;PMS5003;66582;43.004;-75.010;2023-02-26T07:12:37;21;18;
77481;PMS5003;66582;43.004;-75.010;2023-02-26T07:15:03;19;18;
77481;PMS5003;66582;43.004;-75.010;2023-02-26T07:17:28;25;21;
77481;PMS5003;66582;43.004;-75.010;2023-02-26T07:19:53;25;22;
77481;PMS5003;66582;43.004;-75.010;2023-02-26T07:22:19;26;25;
77481;PMS5003;66582;43.004;-75.010;2023-02-26T07:24:44;25;23;
77481;PMS5003;66582;43.004;-75.010;2023-02-26T07:27:09;20;19;
77481;PMS5003;66582;43.004;-75.010;2023-02-26T07:29:35;23;21;
77481;PMS5003;66582;43.004;-75.010;2023-02-26T07:32:01;25;19;
77481;PMS5003;66582;43.004;-75.010;2023-02-26T07:34:26;22;20;
77481;PMS5003;66582;43.004;-75.010;2023-02-26T07:36:51;22;19;
77481;PMS5003;66582;43.004;-75.010;2023-02-26T07:39:17;19;16;
77481;PMS5003;66582;43.004;-75.010;2023-02-26T07:41:42;16;16;
77481;PMS5003;66582;43.004;-75.010;2023-02-26T07:44:08;15;15;
77481;PMS5003;66582;43.004;-75.010;2023-02-26T07:46:33;15;15;
77481;PMS5003;66582;43.004;-75.010;2023-02-26T07:48:58;18;15;
77481;PMS5003;66582;43.004;-75.010;2023-02-26T07:51:23;21;19;
77481;PMS5003;66582;43.004;-75.010;2023-02-26T07:53:48;22;21;
77481;PMS5003;66582;43.004;-75.010;2023-02-26T07:56:14;18;16;
77481;PMS5003;66582;43.004;-75.010;2023-02-26T07:58:40;22;22;
77481;PMS5003;66582;43.004;-75.010;2023-02-26T08:01:06;21;18;
77481;PMS5003;66582;43.004;-75.010;2023-02-26T08:03:32;17;17;
77481;PMS5003;66582;43.004;-75.010;2023-02-26T08:05:58;19;19;
77481;PMS5003;66582;43.004;-75.010;2023-02-26T08:08:23;21;18;
77481;PMS5003;66582;43.004;-75.010;2023-02-26T08:10:48;22;19;
77481;PMS5003;66582;43.004;-75.010;2023-02-26T08:13:13;21;18;
77481;PMS5003;66582;43.004;-75.010;2023-02-26T08:15:39;18;15;
77481;PMS5003;66582;43.004;-75.010;2023-02-26T08:18:04;26;21;
77481;PMS5003;66582;43.004;-75.010;2023-02-26T08:20:29;25;21;
77481;PMS5003;66582;43.004;-75.010;2023-02-26T08:22:55;19;18;
77481;PMS5003;66582;43.004;-75.010;2023-02-26T08:25:20;28;28;
77481;PMS5003;66582;43.004;-75.010;2023-02-26T08:27:46;25;23;
77481;PMS5003;66582;43.004;-75.010;2023-02-26T08:30:12;26;23;
77481;PMS5003;66582;43.004;-75.010;2023-02-26T08:32:37;25;22;
77481;PMS5003;66582;43.004;-75.010;2023-02-26T08:35:02;23;23;
77481;PMS5003;66582;43.004;-75.010;2023-02-26T08:37:28;22;20;
77481;PMS5003;66582;43.004;-75.010;2023-02-26T08:39:53;22;22;
77481;PMS5003;66582;43.004;-75.010;2023-02-26T08:42:19;25;25;
77481;PMS5003;66582;43.004;-75.010;2023-02-26T08:44:44;22;19;
77481;PMS5003;66582;43.004;-75.010;2023-02-26T08:47:09;23;22;
77481;PMS5003;66582;43.004;-75.010;2023-02-26T08:49:34;25;22;
77481;PMS5003;66582;43.004;-75.010;2023-02-26T08:52:00;20;17;
77481;PMS5003;66582;43.004;-75.010;2023-02-26T08:54:25;20;19;
77481;PMS5003;66582;43.004;-75.010;2023-02-26T08:56:52;20;20;
77481;PMS5003;66582;43.004;-75.010;2023-02-26T08:59:16;20;20;
77481;PMS5003;66582;43.004;-75.010;2023-02-26T09:01:42;20;19;
77481;PMS5003;66582;43.004;-75.010;2023-02-26T09:04:07;20;19;
77481;PMS5003;66582;43.004;-75.010;2023-02-26T09:06:32;20;16;
77481;PMS5003;66582;43.004;-75.010;2023-02-26T09:08:58;22;19;
77481;PMS5003;66582;43.004;-75.010;2023-02-26T09:11:23;23;22;
77481;PMS5003;66582;43.004;-75.010;2023-02-26T09:13:49;20;20;
77481;PMS5003;66582;43.004;-75.010;2023-02-26T09:16:14;17;13;
77481;PMS5003;66582;43.004;-75.010;2023-02-26T09:18:40;21;20;
77481;PMS5003;66582;43.004;-75.010;2023-02-26T09:21:05;19;19;
77481;PMS5003;66582;43.004;-75.010;2023-02-26T09:23:31;22;22;
77481;PMS5003;66582;43.004;-75.010;2023-02-26T09:25:56;17;17;
77481;PMS5003;66582;43.004;-75.010;2023-02-26T09:28:22;20;20;
77481;PMS5003;66582;43.004;-75.010;2023-02-26T09:30:49;23;20;
77481;PMS5003;66582;43.004;-75.010;2023-02-26T09:33:13;23;19;
77481;PMS5003;66582;43.004;-75.010;2023-02-26T09:35:38;25;22;
77481;PMS5003;66582;43.004;-75.010;2023-02-26T09:38:03;25;20;
77481;PMS5003;66582;43.004;-75.010;2023-02-26T09:40:31;26;23;
77481;PMS5003;66582;43.004;-75.010;2023-02-26T09:42:59;20;19;
77481;PMS5003;66582;43.004;-75.010;2023-02-26T09:45:23;20;19;
77481;PMS5003;66582;43.004;-75.010;2023-02-26T09:47:46;20;18;
77481;PMS5003;66582;43.004;-75.010;2023-02-26T09:50:12;23;22;
77481;PMS5003;66582;43.004;-75.010;2023-02-26T09:52:39;19;19;
77481;PMS5003;66582;43.004;-75.010;2023-02-26T09:55:03;17;17;
77481;PMS5003;66582;43.004;-75.010;2023-02-26T09:57:30;20;16;
77481;PMS5003;66582;43.004;-75.010;2023-02-26T09:59:53;16;16;
77481;PMS5003;66582;43.004;-75.010;2023-02-26T10:02:23;19;19;
77481;PMS5003;66582;43.004;-75.010;2023-02-26T10:04:48;16;13;
77481;PMS5003;66582;43.004;-75.010;2023-02-26T10:07:12;20;19;
77481;PMS5003;66582;43.004;-75.010;2023-02-26T10:09:38;17;15;
77481;PMS5003;66582;43.004;-75.010;2023-02-26T10:12:01;19;16;
77481;PMS5003;66582;43.004;-75.010;2023-02-26T10:14:25;17;16;
77481;PMS5003;66582;43.004;-75.010;2023-02-26T10:16:51;16;15;
77481;PMS5003;66582;43.004;-75.010;2023-02-26T10:19:17;18;15;
77481;PMS5003;66582;43.004;-75.010;2023-02-26T10:21:43;22;16;
77481;PMS5003;66582;43.004;-75.010;2023-02-26T10:24:10;15;15;
77481;PMS5003;66582;43.004;-75.010;2023-02-26T10:26:35;19;16;
77481;PMS5003;66582;43.004;-75.010;2023-02-26T10:28:59;20;20;
77481;PMS5003;66582;43.004;-75.010;2023-02-26T10:31:25;15;15;
77481;PMS5003;66582;43.004;-75.010;2023-02-26T10:33:49;22;19;
77481;PMS5003;66582;43.004;-75.010;2023-02-26T10:36:16;18;16;
77481;PMS5003;66582;43.004;-75.010;2023-02-26T10:38:39;20;18;
77481;PMS5003;66582;43.004;-75.010;2023-02-26T10:41:05;13;12;
77481;PMS5003;66582;43.004;-75.010;2023-02-26T10:43:31;19;18;
77481;PMS5003;66582;43.004;-75.010;2023-02-26T10:46:00;16;15;
77481;PMS5003;66582;43.004;-75.010;2023-02-26T10:48:23;16;16;
77481;PMS5003;66582;43.004;-75.010;2023-02-26T10:50:48;19;17;
77481;PMS5003;66582;43.004;-75.010;2023-02-26T10:53:11;17;16;
77481;PMS5003;66582;43.004;-75.010;2023-02-26T10:55:38;12;12;
77481;PMS5003;66582;43.004;-75.010;2023-02-26T10:58:04;16;15;
77481;PMS5003;66582;43.004;-75.010;2023-02-26T11:00:27;16;15;
77481;PMS5003;66582;43.004;-75.010;2023-02-26T11:02:53;13;13;
77481;PMS5003;66582;43.004;-75.010;2023-02-26T11:05:20;19;16;
77481;PMS5003;66582;43.004;-75.010;2023-02-26T11:07:44;20;19;
77481;PMS5003;66582;43.004;-75.010;2023-02-26T11:10:13;19;19;
77481;PMS5003;66582;43.004;-75.010;2023-02-26T11:12:34;20;18;
77481;PMS5003;66582;43.004;-75.010;2023-02-26T11:14:59;19;17;
77481;PMS5003;66582;43.004;-75.010;2023-02-26T11:17:26;20;17;
77481;PMS5003;66582;43.004;-75.010;2023-02-26T11:19:51;17;16;
77481;PMS5003;66582;43.004;-75.010;2023-02-26T11:22:16;15;15;
77481;PMS5003;66582;43.004;-75.010;2023-02-26T11:24:43;15;13;
77481;PMS5003;66582;43.004;-75.010;2023-02-26T11:27:10;17;16;
77481;PMS5003;66582;43.004;-75.010;2023-02-26T11:29:34;16;13;
77481;PMS5003;66582;43.004;-75.010;2023-02-26T11:31:58;15;13;
77481;PMS5003;66582;43.004;-75.010;2023-02-26T11:34:23;17;15;
77481;PMS5003;66582;43.004;-75.010;2023-02-26T11:36:48;12;12;
77481;PMS5003;66582;43.004;-75.010;2023-02-26T11:39:14;16;15;
77481;PMS5003;66582;43.004;-75.010;2023-02-26T11:41:38;15;13;
77481;PMS5003;66582;43.004;-75.010;2023-02-26T11:44:04;17;16;
77481;PMS5003;66582;43.004;-75.010;2023-02-26T11:46:29;17;17;
77481;PMS5003;66582;43.004;-75.010;2023-02-26T11:48:54;20;16;
77481;PMS5003;66582;43.004;-75.010;2023-02-26T11:51:20;17;16;
77481;PMS5003;66582;43.004;-75.010;2023-02-26T11:53:47;19;16;
77481;PMS5003;66582;43.004;-75.010;2023-02-26T11:56:10;15;13;
77481;PMS5003;66582;43.004;-75.010;2023-02-26T11:58:36;17;16;
77481;PMS5003;66582;43.004;-75.010;2023-02-26T12:01:01;16;15;
77481;PMS5003;66582;43.004;-75.010;2023-02-26T12:03:27;18;15;
77481;PMS5003;66582;43.004;-75.010;2023-02-26T12:05:52;17;15;
77481;PMS5003;66582;43.004;-75.010;2023-02-26T12:08:18;18;16;
77481;PMS5003;66582;43.004;-75.010;2023-02-26T12:10:45;13;13;
77481;PMS5003;66582;43.004;-75.010;2023-02-26T12:13:10;15;15;
77481;PMS5003;66582;43.004;-75.010;2023-02-26T12:15:34;17;17;
77481;PMS5003;66582;43.004;-75.010;2023-02-26T12:18:04;17;17;
77481;PMS5003;66582;43.004;-75.010;2023-02-26T12:20:25;19;19;
77481;PMS5003;66582;43.004;-75.010;2023-02-26T12:22:52;19;19;
77481;PMS5003;66582;43.004;-75.010;2023-02-26T12:25:19;17;17;
77481;PMS5003;66582;43.004;-75.010;2023-02-26T12:27:45;15;15;
77481;PMS5003;66582;43.004;-75.010;2023-02-26T12:30:10;15;15;
77481;PMS5003;66582;43.004;-75.010;2023-02-26T12:32:36;24;23;
77481;PMS5003;66582;43.004;-75.010;2023-02-26T12:35:01;23;20;
77481;PMS5003;66582;43.004;-75.010;2023-02-26T12:37:27;15;15;
77481;PMS5003;66582;43.004;-75.010;2023-02-26T12:39:52;20;19;
77481;PMS5003;66582;43.004;-75.010;2023-02-26T12:42:17;16;15;
77481;PMS5003;66582;43.004;-75.010;2023-02-26T12:44:48;16;16;
77481;PMS5003;66582;43.004;-75.010;2023-02-26T12:47:12;19;17;
77481;PMS5003;66582;43.004;-75.010;2023-02-26T12:49:43;19;16;
77481;PMS5003;66582;43.004;-75.010;2023-02-26T12:52:00;23;21;
77481;PMS5003;66582;43.004;-75.010;2023-02-26T12:54:25;19;16;
77481;PMS5003;66582;43.004;-75.010;2023-02-26T12:56:51;27;20;
77481;PMS5003;66582;43.004;-75.010;2023-02-26T12:59:16;23;19;
77481;PMS5003;66582;43.004;-75.010;2023-02-26T13:01:41;17;16;
77481;PMS5003;66582;43.004;-75.010;2023-02-26T13:04:06;17;17;
77481;PMS5003;66582;43.004;-75.010;2023-02-26T13:08:55;19;16;
77481;PMS5003;66582;43.004;-75.010;2023-02-26T13:11:20;26;21;
77481;PMS5003;66582;43.004;-75.010;2023-02-26T13:13:52;23;19;
77481;PMS5003;66582;43.004;-75.010;2023-02-26T13:16:14;20;19;
77481;PMS5003;66582;43.004;-75.010;2023-02-26T13:18:36;25;20;
77481;PMS5003;66582;43.004;-75.010;2023-02-26T13:21:01;22;20;
77481;PMS5003;66582;43.004;-75.010;2023-02-26T13:23:27;26;20;
77481;PMS5003;66582;43.004;-75.010;2023-02-26T13:25:52;19;17;
77481;PMS5003;66582;43.004;-75.010;2023-02-26T13:28:19;21;20;
77481;PMS5003;66582;43.004;-75.010;2023-02-26T13:30:42;23;20;
77481;PMS5003;66582;43.004;-75.010;2023-02-26T13:33:07;23;20;
77481;PMS5003;66582;43.004;-75.010;2023-02-26T13:35:33;19;19;
77481;PMS5003;66582;43.004;-75.010;2023-02-26T13:37:58;23;20;
77481;PMS5003;66582;43.004;-75.010;2023-02-26T13:42:50;19;19;
77481;PMS5003;66582;43.004;-75.010;2023-02-26T13:45:25;21;17;
77481;PMS5003;66582;43.004;-75.010;2023-02-26T13:47:46;20;18;
77481;PMS5003;66582;43.004;-75.010;2023-02-26T13:50:11;25;23;
77481;PMS5003;66582;43.004;-75.010;2023-02-26T13:52:31;21;21;
77481;PMS5003;66582;43.004;-75.010;2023-02-26T13:54:56;20;18;
77481;PMS5003;66582;43.004;-75.010;2023-02-26T13:57:23;18;18;
77481;PMS5003;66582;43.004;-75.010;2023-02-26T13:59:52;24;23;
77481;PMS5003;66582;43.004;-75.010;2023-02-26T14:07:08;24;20;
77481;PMS5003;66582;43.004;-75.010;2023-02-26T14:09:33;21;20;
77481;PMS5003;66582;43.004;-75.010;2023-02-26T14:11:57;21;18;
77481;PMS5003;66582;43.004;-75.010;2023-02-26T14:14:23;23;20;
77481;PMS5003;66582;43.004;-75.010;2023-02-26T14:16:48;23;20;
77481;PMS5003;66582;43.004;-75.010;2023-02-26T14:21:37;23;21;
77481;PMS5003;66582;43.004;-75.010;2023-02-26T14:24:01;21;21;
77481;PMS5003;66582;43.004;-75.010;2023-02-26T14:26:26;20;20;
77481;PMS5003;66582;43.004;-75.010;2023-02-26T14:28:56;21;21;
77481;PMS5003;66582;43.004;-75.010;2023-02-26T14:31:22;19;17;
77481;PMS5003;66582;43.004;-75.010;2023-02-26T14:33:44;17;17;
77481;PMS5003;66582;43.004;-75.010;2023-02-26T14:36:13;20;20;
77481;PMS5003;66582;43.004;-75.010;2023-02-26T14:38:34;17;16;
77481;PMS5003;66582;43.004;-75.010;2023-02-26T14:41:00;24;20;
77481;PMS5003;66582;43.004;-75.010;2023-02-26T14:43:27;22;22;
77481;PMS5003;66582;43.004;-75.010;2023-02-26T14:45:50;21;18;
77481;PMS5003;66582;43.004;-75.010;2023-02-26T14:48:16;21;21;
77481;PMS5003;66582;43.004;-75.010;2023-02-26T14:50:44;25;22;
77481;PMS5003;66582;43.004;-75.010;2023-02-26T14:53:11;24;21;
77481;PMS5003;66582;43.004;-75.010;2023-02-26T14:55:36;19;19;
77481;PMS5003;66582;43.004;-75.010;2023-02-26T14:58:00;26;25;
77481;PMS5003;66582;43.004;-75.010;2023-02-26T15:00:25;19;19;
77481;PMS5003;66582;43.004;-75.010;2023-02-26T15:02:54;18;17;
77481;PMS5003;66582;43.004;-75.010;2023-02-26T15:05:16;25;23;
77481;PMS5003;66582;43.004;-75.010;2023-02-26T15:07:42;18;18;
77481;PMS5003;66582;43.004;-75.010;2023-02-26T15:10:09;19;18;
77481;PMS5003;66582;43.004;-75.010;2023-02-26T15:12:33;18;17;
77481;PMS5003;66582;43.004;-75.010;2023-02-26T15:17:25;23;21;
77481;PMS5003;66582;43.004;-75.010;2023-02-26T15:19:50;18;18;
77481;PMS5003;66582;43.004;-75.010;2023-02-26T15:22:15;18;15;
77481;PMS5003;66582;43.004;-75.010;2023-02-26T15:24:36;23;21;
77481;PMS5003;66582;43.004;-75.010;2023-02-26T15:27:02;18;17;
77481;PMS5003;66582;43.004;-75.010;2023-02-26T15:29:29;25;23;
77481;PMS5003;66582;43.004;-75.010;2023-02-26T15:31:54;19;18;
77481;PMS5003;66582;43.004;-75.010;2023-02-26T15:34:19;23;22;
77481;PMS5003;66582;43.004;-75.010;2023-02-26T15:36:45;32;30;
77481;PMS5003;66582;43.004;-75.010;2023-02-26T15:39:12;23;22;
77481;PMS5003;66582;43.004;-75.010;2023-02-26T15:41:36;101;93;
77481;PMS5003;66582;43.004;-75.010;2023-02-26T15:44:02;39;38;
77481;PMS5003;66582;43.004;-75.010;2023-02-26T15:46:28;23;21;
77481;PMS5003;66582;43.004;-75.010;2023-02-26T15:48:53;22;20;
77481;PMS5003;66582;43.004;-75.010;2023-02-26T15:51:17;23;22;
77481;PMS5003;66582;43.004;-75.010;2023-02-26T15:53:43;23;20;
77481;PMS5003;66582;43.004;-75.010;2023-02-26T15:56:09;19;19;
77481;PMS5003;66582;43.004;-75.010;2023-02-26T15:58:35;25;22;
77481;PMS5003;66582;43.004;-75.010;2023-02-26T16:00:59;24;21;